createdAt,value
2022-08-25T00:00:03.018Z,21.72
2022-08-25T00:02:32.555Z,21.70
2022-08-25T00:05:01.956Z,21.68
2022-08-25T00:07:32.237Z,21.71
2022-08-25T00:10:01.421Z,21.58
2022-08-25T00:12:29.120Z,21.58
2022-08-25T00:14:56.787Z,21.57
2022-08-25T00:17:24.432Z,21.51
2022-08-25T00:19:52.067Z,21.50
2022-08-25T00:22:19.667Z,21.54
2022-08-25T00:24:47.336Z,21.57
2022-08-25T00:27:16.401Z,21.59
2022-08-25T00:29:44.087Z,21.58
2022-08-25T00:32:13.262Z,21.52
2022-08-25T00:34:40.964Z,21.46
2022-08-25T00:37:10.142Z,21.39
2022-08-25T00:39:38.953Z,21.33
2022-08-25T00:42:11.907Z,21.26
2022-08-25T00:44:45.444Z,21.16
2022-08-25T00:47:13.482Z,21.09
2022-08-25T00:49:44.085Z,21.06
2022-08-25T00:52:15.916Z,21.04
2022-08-25T00:54:46.868Z,20.97
2022-08-25T00:57:17.778Z,20.98
2022-08-25T00:59:47.966Z,20.94
2022-08-25T01:02:17.963Z,20.89
2022-08-25T01:04:49.127Z,20.84
2022-08-25T01:07:19.369Z,20.81
2022-08-25T01:09:50.851Z,20.83
2022-08-25T01:12:18.472Z,20.84
2022-08-25T01:14:47.652Z,20.87
2022-08-25T01:17:15.683Z,20.84
2022-08-25T01:19:43.737Z,20.88
2022-08-25T01:22:13.048Z,20.82
2022-08-25T01:24:48.120Z,20.83
2022-08-25T01:27:15.929Z,20.80
2022-08-25T01:29:43.839Z,20.78
2022-08-25T01:32:14.775Z,20.77
2022-08-25T01:34:44.720Z,20.74
2022-08-25T01:37:15.749Z,20.74
2022-08-25T01:39:44.968Z,20.76
2022-08-25T01:42:35.264Z,20.75
2022-08-25T01:45:02.891Z,20.76
2022-08-25T01:47:31.878Z,20.76
2022-08-25T01:49:59.575Z,20.76
2022-08-25T01:52:30.606Z,20.74
2022-08-25T01:54:58.232Z,20.68
2022-08-25T01:57:25.875Z,20.70
2022-08-25T01:59:53.513Z,20.61
2022-08-25T02:02:21.667Z,20.47
2022-08-25T02:04:49.280Z,20.37
2022-08-25T02:07:19.077Z,20.24
2022-08-25T02:09:48.100Z,20.16
2022-08-25T02:12:15.732Z,20.11
2022-08-25T02:14:43.435Z,20.09
2022-08-25T02:17:11.029Z,20.24
2022-08-25T02:19:38.760Z,20.29
2022-08-25T02:22:06.360Z,20.32
2022-08-25T02:24:34.839Z,20.37
2022-08-25T02:27:04.039Z,20.37
2022-08-25T02:29:31.778Z,20.33
2022-08-25T02:31:59.842Z,20.29
2022-08-25T02:34:27.506Z,20.23
2022-08-25T02:36:55.250Z,20.15
2022-08-25T02:39:23.235Z,20.21
2022-08-25T02:41:51.451Z,20.19
2022-08-25T02:44:20.517Z,20.15
2022-08-25T02:46:48.460Z,20.13
2022-08-25T02:49:16.139Z,20.12
2022-08-25T02:51:43.900Z,20.14
2022-08-25T02:54:11.675Z,20.16
2022-08-25T02:56:40.112Z,20.18
2022-08-25T02:59:07.959Z,20.17
2022-08-25T03:01:36.980Z,20.07
2022-08-25T03:04:04.653Z,19.99
2022-08-25T03:06:32.409Z,19.95
2022-08-25T03:09:00.087Z,19.90
2022-08-25T03:11:27.868Z,19.80
2022-08-25T03:13:56.296Z,19.78
2022-08-25T03:16:24.004Z,19.80
2022-08-25T03:18:57.420Z,19.76
2022-08-25T03:21:25.384Z,19.76
2022-08-25T03:23:53.147Z,19.77
2022-08-25T03:26:38.250Z,19.78
2022-08-25T03:29:05.874Z,19.76
2022-08-25T03:31:34.695Z,19.75
2022-08-25T03:34:04.212Z,19.74
2022-08-25T03:36:32.010Z,19.73
2022-08-25T03:39:00.405Z,19.67
2022-08-25T03:41:32.477Z,19.72
2022-08-25T03:44:00.856Z,19.74
2022-08-25T03:46:30.351Z,19.76
2022-08-25T03:48:58.799Z,19.72
2022-08-25T03:51:30.449Z,19.52
2022-08-25T03:53:58.876Z,19.34
2022-08-25T03:56:27.351Z,19.41
2022-08-25T03:58:55.105Z,19.50
2022-08-25T04:01:23.034Z,19.60
2022-08-25T04:03:51.024Z,19.67
2022-08-25T04:06:19.750Z,19.70
2022-08-25T04:08:49.008Z,19.70
2022-08-25T04:11:18.502Z,19.69
2022-08-25T04:13:47.760Z,19.76
2022-08-25T04:16:17.404Z,19.78
2022-08-25T04:18:46.047Z,19.75
2022-08-25T04:21:14.892Z,19.73
2022-08-25T04:23:44.731Z,19.77
2022-08-25T04:26:16.669Z,19.79
2022-08-25T04:28:44.307Z,19.69
2022-08-25T04:31:14.292Z,19.55
2022-08-25T04:33:42.584Z,19.42
2022-08-25T04:36:12.503Z,19.34
2022-08-25T04:38:41.822Z,19.31
2022-08-25T04:41:11.389Z,19.44
2022-08-25T04:43:42.329Z,19.54
2022-08-25T04:46:12.436Z,19.51
2022-08-25T04:48:40.560Z,19.47
2022-08-25T04:51:10.812Z,19.44
2022-08-25T04:53:39.183Z,19.44
2022-08-25T04:56:07.782Z,19.52
2022-08-25T04:58:35.835Z,19.54
2022-08-25T05:01:06.150Z,19.54
2022-08-25T05:03:34.944Z,19.58
2022-08-25T05:06:02.608Z,19.63
2022-08-25T05:08:31.261Z,19.65
2022-08-25T05:10:58.942Z,19.63
2022-08-25T05:13:27.261Z,19.60
2022-08-25T05:15:55.968Z,19.64
2022-08-25T05:18:29.936Z,19.71
2022-08-25T05:20:58.689Z,19.70
2022-08-25T05:23:26.353Z,19.67
2022-08-25T05:25:54.483Z,19.55
2022-08-25T05:28:22.606Z,19.49
2022-08-25T05:30:50.360Z,19.47
2022-08-25T05:33:18.371Z,19.56
2022-08-25T05:35:47.348Z,19.69
2022-08-25T05:38:15.577Z,19.75
2022-08-25T05:40:43.349Z,19.77
2022-08-25T05:43:12.242Z,19.70
2022-08-25T05:45:40.537Z,19.73
2022-08-25T05:48:08.444Z,19.83
2022-08-25T05:50:36.109Z,19.95
2022-08-25T05:53:05.342Z,20.07
2022-08-25T05:55:32.949Z,20.13
2022-08-25T05:58:00.693Z,20.20
2022-08-25T06:00:28.401Z,20.23
2022-08-25T06:02:55.196Z,20.24
2022-08-25T06:05:24.273Z,20.18
2022-08-25T06:07:53.269Z,20.26
2022-08-25T06:10:22.909Z,20.39
2022-08-25T06:12:50.512Z,20.48
2022-08-25T06:15:19.953Z,20.59
2022-08-25T06:17:48.211Z,20.71
2022-08-25T06:20:18.925Z,20.83
2022-08-25T06:22:50.741Z,20.92
2022-08-25T06:25:21.537Z,20.97
2022-08-25T06:27:50.812Z,21.00
2022-08-25T06:30:25.742Z,21.06
2022-08-25T06:32:56.892Z,21.13
2022-08-25T06:35:24.527Z,21.17
2022-08-25T06:37:52.134Z,21.27
2022-08-25T06:40:19.868Z,21.34
2022-08-25T06:42:50.091Z,21.43
2022-08-25T06:45:19.303Z,21.50
2022-08-25T06:47:46.921Z,21.59
2022-08-25T06:50:14.829Z,21.69
2022-08-25T06:52:43.048Z,21.80
2022-08-25T06:55:11.334Z,21.91
2022-08-25T06:57:38.954Z,22.02
2022-08-25T07:00:10.683Z,22.09
2022-08-25T07:02:40.526Z,22.19
2022-08-25T07:05:16.941Z,22.34
2022-08-25T07:07:50.684Z,22.49
2022-08-25T07:10:19.477Z,22.63
2022-08-25T07:12:47.237Z,22.74
2022-08-25T07:15:20.467Z,22.81
2022-08-25T07:17:49.656Z,22.92
2022-08-25T07:20:19.417Z,23.07
2022-08-25T07:22:48.896Z,23.12
2022-08-25T07:25:17.836Z,23.20
2022-08-25T07:27:45.863Z,23.32
2022-08-25T07:30:13.608Z,23.39
2022-08-25T07:32:43.095Z,23.48
2022-08-25T07:35:19.012Z,23.58
2022-08-25T07:37:51.216Z,23.69
2022-08-25T07:40:22.357Z,23.79
2022-08-25T07:42:51.318Z,23.83
2022-08-25T07:45:20.899Z,23.95
2022-08-25T07:47:52.030Z,24.05
2022-08-25T07:50:20.580Z,24.18
2022-08-25T07:52:49.754Z,24.21
2022-08-25T07:55:21.742Z,24.30
2022-08-25T07:57:54.031Z,24.36
2022-08-25T08:00:27.356Z,24.43
2022-08-25T08:02:56.855Z,24.49
2022-08-25T08:05:25.344Z,24.59
2022-08-25T08:07:53.295Z,24.65
2022-08-25T08:13:10.338Z,24.78
2022-08-25T08:15:38.729Z,24.84
2022-08-25T08:18:08.004Z,24.95
2022-08-25T08:20:43.014Z,25.05
2022-08-25T08:23:11.149Z,25.18
2022-08-25T08:25:38.758Z,25.29
2022-08-25T08:28:07.444Z,25.37
2022-08-25T08:30:36.385Z,25.40
2022-08-25T08:33:12.925Z,25.57
2022-08-25T08:35:42.483Z,25.64
2022-08-25T08:38:17.356Z,25.75
2022-08-25T08:41:11.096Z,25.82
2022-08-25T08:43:41.693Z,25.99
2022-08-25T08:46:09.430Z,26.21
2022-08-25T08:48:53.533Z,26.19
2022-08-25T08:51:25.652Z,26.19
2022-08-25T08:54:15.356Z,26.38
2022-08-25T08:56:48.594Z,26.51
2022-08-25T08:59:21.444Z,26.52
2022-08-25T09:01:56.355Z,26.64
2022-08-25T09:04:31.205Z,26.68
2022-08-25T09:07:02.216Z,26.71
2022-08-25T09:09:35.613Z,26.73
2022-08-25T09:12:13.764Z,26.75
2022-08-25T09:15:02.516Z,26.85
2022-08-25T09:18:06.999Z,26.98
2022-08-25T09:20:51.707Z,27.00
2022-08-25T09:23:26.150Z,27.10
2022-08-25T09:26:02.048Z,27.34
2022-08-25T09:28:33.792Z,27.35
2022-08-25T09:31:03.750Z,27.43
2022-08-25T09:33:35.765Z,27.63
2022-08-25T09:36:06.315Z,27.69
2022-08-25T09:38:38.542Z,27.67
2022-08-25T09:41:06.759Z,27.77
2022-08-25T09:43:37.375Z,27.90
2022-08-25T09:46:12.815Z,28.05
2022-08-25T09:48:48.437Z,28.13
2022-08-25T09:51:27.120Z,28.10
2022-08-25T09:53:59.476Z,28.19
2022-08-25T09:56:31.183Z,28.08
2022-08-25T09:59:20.949Z,28.29
2022-08-25T10:02:02.852Z,28.46
2022-08-25T10:04:32.601Z,28.65
2022-08-25T10:07:01.095Z,28.75
2022-08-25T10:09:34.958Z,28.92
2022-08-25T10:12:04.802Z,29.06
2022-08-25T10:14:36.381Z,29.13
2022-08-25T10:17:24.632Z,29.18
2022-08-25T10:20:13.225Z,29.16
2022-08-25T10:22:42.673Z,29.11
2022-08-25T10:25:13.797Z,29.12
2022-08-25T10:27:50.814Z,29.26
2022-08-25T10:30:23.891Z,29.28
2022-08-25T10:33:09.130Z,29.30
2022-08-25T10:35:48.966Z,29.49
2022-08-25T10:38:36.020Z,29.74
2022-08-25T10:41:16.108Z,29.86
2022-08-25T10:43:50.553Z,29.67
2022-08-25T10:46:36.474Z,29.68
2022-08-25T10:49:09.193Z,29.94
2022-08-25T10:51:50.986Z,30.19
2022-08-25T10:54:30.235Z,30.49
2022-08-25T10:57:08.831Z,30.70
2022-08-25T10:59:51.567Z,31.03
2022-08-25T11:02:47.992Z,31.37
2022-08-25T11:05:26.982Z,31.54
2022-08-25T11:08:01.897Z,31.52
2022-08-25T11:10:39.530Z,31.54
2022-08-25T11:13:18.746Z,31.55
2022-08-25T11:16:15.430Z,31.77
2022-08-25T11:18:49.076Z,32.00
2022-08-25T11:21:23.425Z,31.92
2022-08-25T11:23:55.279Z,32.05
2022-08-25T11:26:31.922Z,32.10
2022-08-25T11:29:05.580Z,32.35
2022-08-25T11:31:45.871Z,32.40
2022-08-25T11:34:19.429Z,32.75
2022-08-25T11:36:56.213Z,32.80
2022-08-25T11:39:38.518Z,32.89
2022-08-25T11:42:21.112Z,33.39
2022-08-25T11:44:59.583Z,33.81
2022-08-25T11:47:40.374Z,33.60
2022-08-25T11:50:25.836Z,33.48
2022-08-25T11:53:00.739Z,33.99
2022-08-25T11:55:46.235Z,34.45
2022-08-25T11:58:33.374Z,34.91
2022-08-25T12:01:05.386Z,35.36
2022-08-25T12:03:54.016Z,35.39
2022-08-25T12:06:59.402Z,35.70
2022-08-25T12:09:27.037Z,35.92
2022-08-25T12:11:58.016Z,36.41
2022-08-25T12:14:43.904Z,36.29
2022-08-25T12:17:26.108Z,36.83
2022-08-25T12:19:59.792Z,36.98
2022-08-25T12:22:51.307Z,37.33
2022-08-25T12:25:36.130Z,36.96
2022-08-25T12:28:19.376Z,37.04
2022-08-25T12:30:51.463Z,37.62
2022-08-25T12:33:31.693Z,38.28
2022-08-25T12:36:01.165Z,38.76
2022-08-25T12:38:35.040Z,38.96
2022-08-25T12:41:10.244Z,39.10
2022-08-25T12:43:40.896Z,39.12
2022-08-25T12:46:36.614Z,39.68
2022-08-25T12:49:13.529Z,39.88
2022-08-25T12:51:57.501Z,40.55
2022-08-25T12:54:47.532Z,40.73
2022-08-25T12:57:32.675Z,41.27
2022-08-25T13:00:05.988Z,41.26
2022-08-25T13:03:07.227Z,41.95
2022-08-25T13:05:55.895Z,42.80
2022-08-25T13:08:46.878Z,42.38
2022-08-25T13:11:20.191Z,44.21
2022-08-25T13:13:52.657Z,43.64
2022-08-25T13:16:24.575Z,45.26
2022-08-25T13:18:59.033Z,46.22
2022-08-25T13:21:31.624Z,47.06
2022-08-25T13:24:05.386Z,46.54
2022-08-25T13:26:36.141Z,46.71
2022-08-25T13:29:17.845Z,46.67
2022-08-25T13:31:56.896Z,45.76
2022-08-25T13:34:34.356Z,47.31
2022-08-25T13:37:26.831Z,48.76
2022-08-25T13:40:10.900Z,48.87
2022-08-25T13:42:42.239Z,49.27
2022-08-25T13:45:15.030Z,48.96
2022-08-25T13:47:45.785Z,48.39
2022-08-25T13:50:21.124Z,49.54
2022-08-25T13:52:55.879Z,49.98
2022-08-25T13:55:27.773Z,49.95
2022-08-25T13:57:58.218Z,47.71
2022-08-25T14:00:32.062Z,48.76
2022-08-25T14:03:02.146Z,50.30
2022-08-25T14:05:38.925Z,48.96
2022-08-25T14:08:29.172Z,50.02
2022-08-25T14:11:06.568Z,51.56
2022-08-25T14:13:44.438Z,50.53
2022-08-25T14:16:15.546Z,51.49
2022-08-25T14:18:49.301Z,52.28
2022-08-25T14:21:18.405Z,52.53
2022-08-25T14:23:48.292Z,51.13
2022-08-25T14:26:16.395Z,51.36
2022-08-25T14:28:44.119Z,52.01
2022-08-25T14:31:15.235Z,51.79
2022-08-25T14:33:50.137Z,52.49
2022-08-25T14:36:18.713Z,53.37
2022-08-25T14:38:54.921Z,52.25
2022-08-25T14:41:23.745Z,52.69
2022-08-25T14:43:51.479Z,53.05
2022-08-25T14:46:22.132Z,53.42
2022-08-25T14:48:55.430Z,53.76
2022-08-25T14:51:25.745Z,53.35
2022-08-25T14:54:00.512Z,53.59
2022-08-25T14:56:29.258Z,53.36
2022-08-25T14:58:57.253Z,53.41
2022-08-25T15:01:30.039Z,53.87
2022-08-25T15:04:04.417Z,53.47
2022-08-25T15:06:32.737Z,52.71
2022-08-25T15:09:11.446Z,53.39
2022-08-25T15:11:41.906Z,54.35
2022-08-25T15:14:10.919Z,54.21
2022-08-25T15:16:42.801Z,54.80
2022-08-25T15:19:14.414Z,54.66
2022-08-25T15:21:44.482Z,54.75
2022-08-25T15:24:17.376Z,54.82
2022-08-25T15:29:23.279Z,53.47
2022-08-25T15:31:51.355Z,53.65
2022-08-25T15:34:19.244Z,54.38
2022-08-25T15:36:47.139Z,54.33
2022-08-25T15:39:17.918Z,53.68
2022-08-25T15:41:49.220Z,53.26
2022-08-25T15:44:17.558Z,53.06
2022-08-25T15:46:49.526Z,52.68
2022-08-25T15:49:23.217Z,51.86
2022-08-25T15:51:52.232Z,49.58
2022-08-25T15:54:21.572Z,48.69
2022-08-25T15:56:49.266Z,49.89
2022-08-25T15:59:17.181Z,50.99
2022-08-25T16:01:45.452Z,51.74
2022-08-25T16:04:14.383Z,51.71
2022-08-25T16:06:41.987Z,52.65
2022-08-25T16:09:09.793Z,52.56
2022-08-25T16:11:38.905Z,52.48
2022-08-25T16:14:06.983Z,52.64
2022-08-25T16:16:35.026Z,53.40
2022-08-25T16:19:03.118Z,53.75
2022-08-25T16:21:34.973Z,54.22
2022-08-25T16:24:07.730Z,52.76
2022-08-25T16:26:36.364Z,53.84
2022-08-25T16:29:06.447Z,54.21
2022-08-25T16:31:34.488Z,54.09
2022-08-25T16:34:02.301Z,53.31
2022-08-25T16:36:30.201Z,53.75
2022-08-25T16:39:00.848Z,53.18
2022-08-25T16:41:34.141Z,52.17
2022-08-25T16:44:07.592Z,51.92
2022-08-25T16:46:38.787Z,51.56
2022-08-25T16:49:09.433Z,51.66
2022-08-25T16:51:38.989Z,50.23
2022-08-25T16:54:24.959Z,50.83
2022-08-25T16:56:54.969Z,50.90
2022-08-25T16:59:25.209Z,49.98
2022-08-25T17:01:53.784Z,48.72
2022-08-25T17:04:31.972Z,49.32
2022-08-25T17:07:01.759Z,49.60
2022-08-25T17:09:30.580Z,49.53
2022-08-25T17:11:58.449Z,48.73
2022-08-25T17:14:28.719Z,48.33
2022-08-25T17:16:56.335Z,47.92
2022-08-25T17:19:24.980Z,47.36
2022-08-25T17:21:54.374Z,47.22
2022-08-25T17:24:29.427Z,46.40
2022-08-25T17:27:01.574Z,46.38
2022-08-25T17:29:31.128Z,46.09
2022-08-25T17:31:59.187Z,45.91
2022-08-25T17:34:27.487Z,45.34
2022-08-25T17:36:56.152Z,44.84
2022-08-25T17:39:25.668Z,44.15
2022-08-25T17:41:54.608Z,43.33
2022-08-25T17:44:22.404Z,42.91
2022-08-25T17:46:51.889Z,42.48
2022-08-25T17:49:20.028Z,41.90
2022-08-25T17:51:47.669Z,41.59
2022-08-25T17:54:15.588Z,41.20
2022-08-25T17:56:43.720Z,40.47
2022-08-25T17:59:11.965Z,39.52
2022-08-25T18:01:40.657Z,38.48
2022-08-25T18:04:17.958Z,37.81
2022-08-25T18:06:48.278Z,37.14
2022-08-25T18:09:16.329Z,36.16
2022-08-25T18:11:45.528Z,35.48
2022-08-25T18:14:16.398Z,34.95
2022-08-25T18:16:44.094Z,34.30
2022-08-25T18:19:15.489Z,33.77
2022-08-25T18:21:43.664Z,33.17
2022-08-25T18:24:11.953Z,32.80
2022-08-25T18:26:41.513Z,32.45
2022-08-25T18:29:12.016Z,32.14
2022-08-25T18:31:40.526Z,31.82
2022-08-25T18:34:10.983Z,31.33
2022-08-25T18:36:40.144Z,31.16
2022-08-25T18:39:26.380Z,30.97
2022-08-25T18:41:54.059Z,30.72
2022-08-25T18:44:22.477Z,30.55
2022-08-25T18:46:50.175Z,30.13
2022-08-25T18:49:18.289Z,29.84
2022-08-25T18:51:48.355Z,29.69
2022-08-25T18:54:23.273Z,29.35
2022-08-25T18:56:52.251Z,29.09
2022-08-25T18:59:20.220Z,28.85
2022-08-25T19:01:52.461Z,28.66
2022-08-25T19:04:20.275Z,28.50
2022-08-25T19:06:57.334Z,28.47
2022-08-25T19:09:24.949Z,28.37
2022-08-25T19:11:53.180Z,28.28
2022-08-25T19:14:23.109Z,28.12
2022-08-25T19:16:54.336Z,27.95
2022-08-25T19:19:22.005Z,27.80
2022-08-25T19:21:50.933Z,27.77
2022-08-25T19:24:20.969Z,27.57
2022-08-25T19:26:51.444Z,27.34
2022-08-25T19:29:21.748Z,27.35
2022-08-25T19:31:49.577Z,27.24
2022-08-25T19:34:25.281Z,27.12
2022-08-25T19:36:56.898Z,27.05
2022-08-25T19:39:27.512Z,26.98
2022-08-25T19:41:56.545Z,26.85
2022-08-25T19:44:26.082Z,26.70
2022-08-25T19:46:56.160Z,26.58
2022-08-25T19:49:28.375Z,26.49
2022-08-25T19:52:00.175Z,26.36
2022-08-25T19:54:32.027Z,26.25
2022-08-25T19:57:00.338Z,26.15
2022-08-25T19:59:34.360Z,26.03
2022-08-25T20:02:15.504Z,25.96
2022-08-25T20:04:43.871Z,25.87
2022-08-25T20:07:17.764Z,25.77
2022-08-25T20:09:47.340Z,25.70
2022-08-25T20:14:43.242Z,25.49
2022-08-25T20:17:14.835Z,25.41
2022-08-25T20:19:53.994Z,25.28
2022-08-25T20:22:25.904Z,25.21
2022-08-25T20:24:57.948Z,25.12
2022-08-25T20:27:29.340Z,25.05
2022-08-25T20:29:57.048Z,25.01
2022-08-25T20:32:24.710Z,24.93
2022-08-25T20:34:54.023Z,24.88
2022-08-25T20:37:23.459Z,24.83
2022-08-25T20:39:52.826Z,24.75
2022-08-25T20:42:22.111Z,24.70
2022-08-25T20:44:50.007Z,24.62
2022-08-25T20:47:20.458Z,24.58
2022-08-25T20:49:48.905Z,24.54
2022-08-25T20:52:19.344Z,24.47
2022-08-25T20:54:50.390Z,24.40
2022-08-25T20:57:19.465Z,24.35
2022-08-25T20:59:55.824Z,24.27
2022-08-25T21:02:24.210Z,24.21
2022-08-25T21:04:52.671Z,24.14
2022-08-25T21:07:21.516Z,24.12
2022-08-25T21:09:52.023Z,24.04
2022-08-25T21:12:20.360Z,24.03
2022-08-25T21:14:48.969Z,24.00
2022-08-25T21:17:19.205Z,23.93
2022-08-25T21:22:20.060Z,23.85
2022-08-25T21:24:47.796Z,23.79
2022-08-25T21:27:15.717Z,23.77
2022-08-25T21:29:44.437Z,23.68
2022-08-25T21:32:12.702Z,23.67
2022-08-25T21:34:41.632Z,23.61
2022-08-25T21:37:09.243Z,23.55
2022-08-25T21:39:36.844Z,23.51
2022-08-25T21:42:06.074Z,23.50
2022-08-25T21:44:36.449Z,23.53
2022-08-25T21:47:04.485Z,23.53
2022-08-25T21:49:37.494Z,23.55
2022-08-25T21:52:07.084Z,23.55
2022-08-25T21:54:34.724Z,23.53
2022-08-25T21:57:04.525Z,23.50
2022-08-25T21:59:35.069Z,23.51
2022-08-25T22:02:05.121Z,23.50
2022-08-25T22:04:33.459Z,23.50
2022-08-25T22:07:02.517Z,23.50
2022-08-25T22:09:32.120Z,23.41
2022-08-25T22:11:59.839Z,23.39
2022-08-25T22:14:28.131Z,23.32
2022-08-25T22:16:56.893Z,23.26
2022-08-25T22:19:25.145Z,23.21
2022-08-25T22:21:53.720Z,23.13
2022-08-25T22:24:21.606Z,23.06
2022-08-25T22:26:51.294Z,22.99
2022-08-25T22:29:25.333Z,22.91
2022-08-25T22:31:54.009Z,22.82
2022-08-25T22:34:31.629Z,22.74
2022-08-25T22:37:00.102Z,22.70
2022-08-25T22:39:28.105Z,22.61
2022-08-25T22:41:57.178Z,22.62
2022-08-25T22:44:26.004Z,22.63
2022-08-25T22:46:54.083Z,22.65
2022-08-25T22:49:21.851Z,22.61
2022-08-25T22:51:49.895Z,22.60
2022-08-25T22:54:18.703Z,22.60
2022-08-25T22:56:46.334Z,22.62
2022-08-25T22:59:15.506Z,22.60
2022-08-25T23:01:45.049Z,22.61
2022-08-25T23:04:14.555Z,22.57
2022-08-25T23:06:42.840Z,22.52
2022-08-25T23:09:11.403Z,22.49
2022-08-25T23:11:39.474Z,22.48
2022-08-25T23:14:10.118Z,22.49
2022-08-25T23:16:41.767Z,22.42
2022-08-25T23:19:10.447Z,22.35
2022-08-25T23:21:56.773Z,22.24
2022-08-25T23:24:29.090Z,22.14
2022-08-25T23:26:58.665Z,22.06
2022-08-25T23:29:27.461Z,21.99
2022-08-25T23:31:57.465Z,21.86
2022-08-25T23:34:26.474Z,21.80
2022-08-25T23:36:54.379Z,21.72
2022-08-25T23:39:23.592Z,21.59
2022-08-25T23:41:51.851Z,21.56
2022-08-25T23:44:21.182Z,21.49
2022-08-25T23:46:50.032Z,21.50
2022-08-25T23:49:21.176Z,21.43
2022-08-25T23:51:51.754Z,21.27
2022-08-25T23:54:21.573Z,21.17
2022-08-25T23:56:56.596Z,21.16
2022-08-25T23:59:25.723Z,21.17
